createdAt,value
2019-06-20T00:02:06.969Z,96250.27
2019-06-20T00:05:03.544Z,96251.80
2019-06-20T00:08:01.213Z,96254.19
2019-06-20T00:10:47.839Z,96255.11
2019-06-20T00:13:46.752Z,96259.35
2019-06-20T00:16:59.409Z,96260.39
2019-06-20T00:20:09.036Z,96258.16
2019-06-20T00:23:10.260Z,96264.08
2019-06-20T00:26:10.451Z,96267.37
2019-06-20T00:29:18.819Z,96263.56
2019-06-20T00:32:11.351Z,96253.99
2019-06-20T00:35:18.118Z,96252.39
2019-06-20T00:38:19.302Z,96254.31
2019-06-20T00:40:56.202Z,96252.07
2019-06-20T00:44:01.664Z,96252.02
2019-06-20T00:46:59.800Z,96254.81
2019-06-20T00:50:10.352Z,96258.83
2019-06-20T00:53:15.556Z,96253.48
2019-06-20T00:56:19.918Z,96253.67
2019-06-20T00:59:15.800Z,96266.11
2019-06-20T01:02:22.805Z,96281.06
2019-06-20T01:05:29.170Z,96281.73
2019-06-20T01:08:34.445Z,96285.69
2019-06-20T01:11:50.283Z,96277.92
2019-06-20T01:14:58.885Z,96265.81
2019-06-20T01:18:08.077Z,96271.23
2019-06-20T01:21:07.176Z,96270.97
2019-06-20T01:23:54.748Z,96278.09
2019-06-20T01:27:01.667Z,96275.56
2019-06-20T01:30:15.865Z,96261.52
2019-06-20T01:33:13.158Z,96258.00
2019-06-20T01:36:01.630Z,96267.68
2019-06-20T01:38:57.280Z,96267.44
2019-06-20T01:41:59.265Z,96267.04
2019-06-20T01:45:14.519Z,96265.69
2019-06-20T01:48:22.491Z,96272.08
2019-06-20T01:51:25.633Z,96267.16
2019-06-20T01:54:22.851Z,96260.52
2019-06-20T01:56:57.870Z,96264.66
2019-06-20T02:00:03.362Z,96265.47
2019-06-20T02:03:07.071Z,96267.69
2019-06-20T02:06:06.083Z,96261.03
2019-06-20T02:09:14.554Z,96266.52
2019-06-20T02:12:14.978Z,96265.02
2019-06-20T02:15:12.657Z,96266.43
2019-06-20T02:18:04.298Z,96265.81
2019-06-20T02:21:19.314Z,96275.27
2019-06-20T02:24:30.152Z,96267.78
2019-06-20T02:27:33.225Z,96275.81
2019-06-20T02:30:41.995Z,96277.22
2019-06-20T02:33:49.391Z,96272.20
2019-06-20T02:36:55.557Z,96283.08
2019-06-20T02:41:06.139Z,96273.20
2019-06-20T02:44:03.566Z,96280.77
2019-06-20T02:47:02.861Z,96289.48
2019-06-20T02:50:14.225Z,96288.31
2019-06-20T02:53:11.412Z,96294.13
2019-06-20T02:56:04.551Z,96294.13
2019-06-20T02:58:59.274Z,96302.44
2019-06-20T03:02:00.243Z,96301.27
2019-06-20T03:05:10.829Z,96303.01
2019-06-20T03:08:07.084Z,96300.66
2019-06-20T03:11:10.657Z,96307.07
2019-06-20T03:14:17.388Z,96308.23
2019-06-20T03:17:21.948Z,96315.68
2019-06-20T03:20:21.768Z,96318.21
2019-06-20T03:23:18.408Z,96332.43
2019-06-20T03:26:09.568Z,96336.66
2019-06-20T03:29:10.936Z,96336.36
2019-06-20T03:32:14.721Z,96342.41
2019-06-20T03:35:30.015Z,96336.99
2019-06-20T03:38:21.939Z,96330.14
2019-06-20T03:41:19.883Z,96330.14
2019-06-20T03:44:26.633Z,96333.78
2019-06-20T03:47:35.491Z,96331.58
2019-06-20T03:50:39.094Z,96333.54
2019-06-20T03:53:32.745Z,96347.88
2019-06-20T03:56:26.278Z,96347.88
2019-06-20T03:59:25.962Z,96348.06
2019-06-20T04:02:31.751Z,96348.69
2019-06-20T04:05:46.837Z,96350.30
2019-06-20T04:08:39.421Z,96360.95
2019-06-20T04:11:52.884Z,96365.57
2019-06-20T04:15:18.989Z,96370.84
2019-06-20T04:18:12.279Z,96374.70
2019-06-20T04:21:10.703Z,96381.20
2019-06-20T04:23:56.782Z,96381.20
2019-06-20T04:26:59.457Z,96378.19
2019-06-20T04:30:07.496Z,96392.03
2019-06-20T04:33:17.380Z,96394.99
2019-06-20T04:36:19.333Z,96393.17
2019-06-20T04:39:18.662Z,96394.62
2019-06-20T04:42:19.375Z,96393.62
2019-06-20T04:45:35.131Z,96390.54
2019-06-20T04:48:25.558Z,96390.54
2019-06-20T04:51:39.546Z,96403.33
2019-06-20T04:54:45.917Z,96405.79
2019-06-20T04:57:58.499Z,96409.87
2019-06-20T05:00:59.626Z,96411.19
2019-06-20T05:03:56.400Z,96420.73
2019-06-20T05:07:04.352Z,96428.53
2019-06-20T05:10:14.129Z,96421.64
2019-06-20T05:13:16.839Z,96426.00
2019-06-20T05:16:25.338Z,96429.44
2019-06-20T05:19:24.491Z,96431.29
2019-06-20T05:22:32.820Z,96430.55
2019-06-20T05:25:21.951Z,96424.82
2019-06-20T05:28:26.146Z,96431.84
2019-06-20T05:31:28.706Z,96428.64
2019-06-20T05:34:21.062Z,96437.98
2019-06-20T05:37:26.137Z,96442.08
2019-06-20T05:40:32.036Z,96444.30
2019-06-20T05:43:47.428Z,96450.61
2019-06-20T05:46:39.176Z,96450.24
2019-06-20T05:49:35.706Z,96450.66
2019-06-20T05:52:43.125Z,96448.74
2019-06-20T05:55:59.496Z,96445.18
2019-06-20T05:59:03.488Z,96452.98
2019-06-20T06:02:10.097Z,96450.95
2019-06-20T06:05:05.885Z,96451.55
2019-06-20T06:08:16.353Z,96450.83
2019-06-20T06:11:19.218Z,96450.96
2019-06-20T06:14:19.116Z,96450.69
2019-06-20T06:17:27.003Z,96448.28
2019-06-20T06:20:37.656Z,96453.12
2019-06-20T06:23:50.136Z,96453.06
2019-06-20T06:27:01.688Z,96452.56
2019-06-20T06:30:18.436Z,96453.37
2019-06-20T06:33:29.996Z,96454.80
2019-06-20T06:36:22.115Z,96451.92
2019-06-20T06:39:20.619Z,96451.26
2019-06-20T06:42:29.440Z,96449.39
2019-06-20T06:45:35.407Z,96441.30
2019-06-20T06:48:44.132Z,96445.95
2019-06-20T06:51:53.946Z,96444.57
2019-06-20T06:54:49.430Z,96444.69
2019-06-20T06:57:51.908Z,96441.96
2019-06-20T07:00:53.990Z,96441.73
2019-06-20T07:03:54.600Z,96448.63
2019-06-20T07:06:59.255Z,96442.50
2019-06-20T07:09:52.119Z,96445.20
2019-06-20T07:12:50.810Z,96438.03
2019-06-20T07:15:56.667Z,96440.95
2019-06-20T07:18:51.866Z,96448.45
2019-06-20T07:21:52.388Z,96449.41
2019-06-20T07:24:48.242Z,96448.33
2019-06-20T07:27:58.335Z,96445.64
2019-06-20T07:31:11.819Z,96442.16
2019-06-20T07:34:19.561Z,96442.06
2019-06-20T07:37:26.513Z,96445.49
2019-06-20T07:40:36.778Z,96450.84
2019-06-20T07:43:17.446Z,96458.74
2019-06-20T07:46:02.019Z,96459.53
2019-06-20T07:48:44.903Z,96462.63
2019-06-20T07:51:53.429Z,96463.56
2019-06-20T07:55:01.349Z,96466.26
2019-06-20T07:58:16.892Z,96464.86
2019-06-20T08:01:19.398Z,96471.34
2019-06-20T08:04:17.435Z,96464.75
2019-06-20T08:07:21.944Z,96465.42
2019-06-20T08:10:17.527Z,96469.97
2019-06-20T08:13:27.715Z,96463.93
2019-06-20T08:16:33.387Z,96466.94
2019-06-20T08:19:39.787Z,96466.02
2019-06-20T08:22:42.982Z,96477.13
2019-06-20T08:25:49.476Z,96477.95
2019-06-20T08:29:19.709Z,96473.28
2019-06-20T08:32:16.834Z,96479.12
2019-06-20T08:35:11.991Z,96474.27
2019-06-20T08:38:21.200Z,96475.34
2019-06-20T08:41:16.615Z,96476.36
2019-06-20T08:44:14.311Z,96468.34
2019-06-20T08:47:19.513Z,96475.48
2019-06-20T08:50:13.635Z,96474.59
2019-06-20T08:53:21.439Z,96476.30
2019-06-20T08:56:14.937Z,96483.12
2019-06-20T08:58:57.347Z,96480.30
2019-06-20T09:04:47.486Z,96485.28
2019-06-20T09:07:19.767Z,96480.23
2019-06-20T09:09:59.832Z,96487.24
2019-06-20T09:12:45.897Z,96489.10
2019-06-20T09:15:24.211Z,96496.95
2019-06-20T09:18:03.740Z,96481.77
2019-06-20T09:20:40.587Z,96487.47
2019-06-20T09:23:41.351Z,96478.94
2019-06-20T09:26:45.012Z,96483.11
2019-06-20T09:29:46.915Z,96483.39
2019-06-20T09:32:43.157Z,96486.34
2019-06-20T09:35:27.133Z,96481.31
2019-06-20T09:38:15.012Z,96480.16
2019-06-20T09:40:54.876Z,96474.30
2019-06-20T09:43:45.856Z,96487.84
2019-06-20T09:46:30.831Z,96485.99
2019-06-20T09:49:13.289Z,96491.41
2019-06-20T09:52:01.183Z,96485.71
2019-06-20T09:54:48.482Z,96488.47
2019-06-20T09:57:24.153Z,96494.00
2019-06-20T10:00:11.062Z,96491.73
2019-06-20T10:02:56.332Z,96499.93
2019-06-20T10:05:43.336Z,96493.55
2019-06-20T10:08:26.996Z,96498.59
2019-06-20T10:11:12.609Z,96496.63
2019-06-20T10:14:10.973Z,96501.20
2019-06-20T10:17:14.919Z,96505.97
2019-06-20T10:20:21.322Z,96502.44
2019-06-20T10:23:27.947Z,96501.69
2019-06-20T10:26:26.263Z,96499.73
2019-06-20T10:29:27.403Z,96505.66
2019-06-20T10:32:26.904Z,96499.95
2019-06-20T10:35:26.045Z,96502.27
2019-06-20T10:38:38.251Z,96499.27
2019-06-20T10:41:43.570Z,96500.30
2019-06-20T10:44:50.311Z,96501.79
2019-06-20T10:47:50.860Z,96506.16
2019-06-20T10:50:34.241Z,96506.98
2019-06-20T10:53:26.048Z,96507.19
2019-06-20T10:56:13.523Z,96515.05
2019-06-20T10:58:46.345Z,96499.29
2019-06-20T11:01:16.908Z,96497.86
2019-06-20T11:03:57.727Z,96493.73
2019-06-20T11:06:59.756Z,96498.95
2019-06-20T11:10:08.910Z,96491.80
2019-06-20T11:13:17.517Z,96488.84
2019-06-20T11:16:08.326Z,96489.34
2019-06-20T11:19:15.044Z,96495.05
2019-06-20T11:22:19.497Z,96496.23
2019-06-20T11:24:54.755Z,96479.14
2019-06-20T11:27:28.347Z,96488.47
2019-06-20T11:30:09.271Z,96487.47
2019-06-20T11:33:15.212Z,96485.92
2019-06-20T11:35:47.904Z,96485.17
2019-06-20T11:38:33.309Z,96480.88
2019-06-20T11:41:27.017Z,96482.28
2019-06-20T11:44:01.659Z,96487.41
2019-06-20T11:46:56.179Z,96484.49
2019-06-20T11:49:34.533Z,96482.81
2019-06-20T11:52:19.088Z,96477.78
2019-06-20T11:55:15.192Z,96478.89
2019-06-20T11:58:23.635Z,96471.72
2019-06-20T12:01:04.159Z,96470.42
2019-06-20T12:04:04.216Z,96472.81
2019-06-20T12:06:57.161Z,96461.77
2019-06-20T12:09:41.365Z,96455.70
2019-06-20T12:12:22.670Z,96461.99
2019-06-20T12:15:18.938Z,96458.87
2019-06-20T12:18:06.255Z,96459.45
2019-06-20T12:21:00.645Z,96455.94
2019-06-20T12:24:02.625Z,96446.48
2019-06-20T12:27:14.769Z,96449.84
2019-06-20T12:29:49.328Z,96447.25
2019-06-20T12:32:52.314Z,96441.03
2019-06-20T12:37:52.523Z,96447.09
2019-06-20T12:40:42.552Z,96438.13
2019-06-20T12:43:50.024Z,96445.42
2019-06-20T12:46:51.292Z,96449.92
2019-06-20T12:50:04.435Z,96450.73
2019-06-20T12:53:10.180Z,96456.41
2019-06-20T12:55:53.962Z,96444.36
2019-06-20T12:59:01.842Z,96441.61
2019-06-20T13:02:06.912Z,96437.02
2019-06-20T13:05:10.920Z,96446.18
2019-06-20T13:08:24.033Z,96460.05
2019-06-20T13:10:58.387Z,96515.90
2019-06-20T13:13:53.968Z,96532.02
2019-06-20T13:16:52.066Z,96532.82
2019-06-20T13:20:07.223Z,96543.27
2019-06-20T13:23:21.238Z,96525.52
2019-06-20T13:26:08.553Z,96519.56
2019-06-20T13:29:13.880Z,96516.73
2019-06-20T13:32:12.394Z,96507.20
2019-06-20T13:35:14.114Z,96512.98
2019-06-20T13:37:50.057Z,96513.27
2019-06-20T13:40:26.999Z,96513.11
2019-06-20T13:43:05.586Z,96504.16
2019-06-20T13:45:47.258Z,96493.53
2019-06-20T13:48:50.423Z,96499.79
2019-06-20T13:51:25.533Z,96494.75
2019-06-20T13:54:20.060Z,96492.36
2019-06-20T13:57:22.575Z,96493.96
2019-06-20T14:00:42.891Z,96485.84
2019-06-20T14:03:44.008Z,96478.60
2019-06-20T14:06:50.130Z,96470.59
2019-06-20T14:10:02.016Z,96481.56
2019-06-20T14:13:02.059Z,96489.42
2019-06-20T14:16:03.592Z,96483.38
2019-06-20T14:18:59.478Z,96483.36
2019-06-20T14:22:08.289Z,96481.16
2019-06-20T14:25:15.419Z,96490.55
2019-06-20T14:28:24.713Z,96469.67
2019-06-20T14:31:29.478Z,96481.29
2019-06-20T14:34:24.942Z,96483.63
2019-06-20T14:37:37.838Z,96488.54
2019-06-20T14:40:43.553Z,96481.47
2019-06-20T14:43:51.898Z,96486.19
2019-06-20T14:46:54.169Z,96483.66
2019-06-20T14:50:01.735Z,96490.19
2019-06-20T14:53:07.325Z,96483.34
2019-06-20T14:56:22.867Z,96488.03
2019-06-20T14:58:55.553Z,96496.09
2019-06-20T15:01:40.853Z,96494.45
2019-06-20T15:04:29.479Z,96499.06
2019-06-20T15:07:18.122Z,96499.88
2019-06-20T15:09:59.026Z,96503.78
2019-06-20T15:12:32.946Z,96502.27
2019-06-20T15:15:18.793Z,96510.37
2019-06-20T15:17:58.119Z,96503.09
2019-06-20T15:20:50.176Z,96505.55
2019-06-20T15:23:41.825Z,96508.81
2019-06-20T15:26:42.040Z,96509.82
2019-06-20T15:29:39.927Z,96506.97
2019-06-20T15:32:33.112Z,96515.95
2019-06-20T15:35:17.620Z,96526.94
2019-06-20T15:37:53.617Z,96536.73
2019-06-20T15:40:45.128Z,96540.72
2019-06-20T15:43:41.074Z,96546.73
2019-06-20T15:46:33.406Z,96539.84
2019-06-20T15:49:27.117Z,96534.03
2019-06-20T15:52:25.169Z,96527.44
2019-06-20T15:55:23.023Z,96536.42
2019-06-20T15:57:56.027Z,96535.19
2019-06-20T16:00:31.027Z,96528.23
2019-06-20T16:03:16.106Z,96529.01
2019-06-20T16:06:15.872Z,96522.92
2019-06-20T16:08:59.409Z,96534.21
2019-06-20T16:11:45.176Z,96540.22
2019-06-20T16:14:30.649Z,96537.25
2019-06-20T16:17:24.216Z,96534.20
2019-06-20T16:20:14.029Z,96537.25
2019-06-20T16:23:16.448Z,96532.27
2019-06-20T16:26:08.608Z,96534.13
2019-06-20T16:29:04.090Z,96534.77
2019-06-20T16:31:59.635Z,96530.22
2019-06-20T16:34:49.902Z,96535.37
2019-06-20T16:37:42.468Z,96536.95
2019-06-20T16:40:22.898Z,96540.84
2019-06-20T16:43:22.706Z,96545.86
2019-06-20T16:46:22.431Z,96544.98
2019-06-20T16:49:12.623Z,96547.22
2019-06-20T16:52:13.926Z,96536.75
2019-06-20T16:55:04.675Z,96542.13
2019-06-20T16:57:46.253Z,96549.67
2019-06-20T17:00:32.807Z,96556.72
2019-06-20T17:03:06.204Z,96553.70
2019-06-20T17:05:49.023Z,96546.50
2019-06-20T17:08:50.755Z,96553.31
2019-06-20T17:11:39.563Z,96557.20
2019-06-20T17:14:12.286Z,96559.52
2019-06-20T17:16:47.894Z,96561.58
2019-06-20T17:19:32.613Z,96592.05
2019-06-20T17:24:29.167Z,96599.47
2019-06-20T17:27:31.294Z,96598.34
2019-06-20T17:30:25.690Z,96606.19
2019-06-20T17:33:15.843Z,96605.86
2019-06-20T17:36:16.994Z,96610.33
2019-06-20T17:39:10.256Z,96618.45
2019-06-20T17:42:00.815Z,96619.56
2019-06-20T17:44:52.994Z,96616.50
2019-06-20T17:47:42.797Z,96615.59
2019-06-20T17:50:19.577Z,96613.90
2019-06-20T17:53:07.754Z,96614.95
2019-06-20T17:56:07.532Z,96620.62
2019-06-20T17:58:57.999Z,96614.57
2019-06-20T18:01:49.606Z,96608.42
2019-06-20T18:04:30.812Z,96615.45
2019-06-20T18:07:30.458Z,96628.88
2019-06-20T18:10:30.812Z,96635.92
2019-06-20T18:13:20.083Z,96641.45
2019-06-20T18:16:24.521Z,96645.84
2019-06-20T18:19:10.871Z,96650.33
2019-06-20T18:22:03.318Z,96645.59
2019-06-20T18:24:57.470Z,96648.01
2019-06-20T18:27:55.630Z,96648.47
2019-06-20T18:31:05.216Z,96646.25
2019-06-20T18:33:55.656Z,96643.69
2019-06-20T18:36:55.791Z,96650.12
2019-06-20T18:39:41.008Z,96642.13
2019-06-20T18:42:29.250Z,96651.03
2019-06-20T18:45:25.394Z,96650.93
2019-06-20T18:48:22.860Z,96656.56
2019-06-20T18:51:00.291Z,96653.15
2019-06-20T18:53:32.232Z,96652.73
2019-06-20T18:56:04.314Z,96656.92
2019-06-20T18:58:34.850Z,96665.58
2019-06-20T19:01:05.484Z,96660.23
2019-06-20T19:03:36.697Z,96677.39
2019-06-20T19:06:08.435Z,96680.74
2019-06-20T19:08:39.128Z,96677.89
2019-06-20T19:11:10.088Z,96691.12
2019-06-20T19:13:40.913Z,96689.78
2019-06-20T19:16:12.236Z,96699.36
2019-06-20T19:18:44.601Z,96695.20
2019-06-20T19:21:19.584Z,96694.78
2019-06-20T19:23:50.365Z,96694.78
2019-06-20T19:26:21.679Z,96697.24
2019-06-20T19:28:52.511Z,96705.30
2019-06-20T19:31:24.165Z,96707.25
2019-06-20T19:33:55.335Z,96706.06
2019-06-20T19:36:26.391Z,96712.38
2019-06-20T19:38:57.908Z,96712.55
2019-06-20T19:41:28.525Z,96715.77
2019-06-20T19:43:59.267Z,96716.27
2019-06-20T19:46:33.481Z,96725.60
2019-06-20T19:49:04.234Z,96725.02
2019-06-20T19:51:39.969Z,96727.28
2019-06-20T19:54:32.335Z,96727.51
2019-06-20T19:57:11.808Z,96736.30
2019-06-20T19:59:54.456Z,96738.94
2019-06-20T20:02:44.958Z,96733.77
2019-06-20T20:05:25.495Z,96724.50
2019-06-20T20:10:48.278Z,96735.65
2019-06-20T20:13:21.757Z,96733.73
2019-06-20T20:15:52.901Z,96735.06
2019-06-20T20:18:23.613Z,96738.70
2019-06-20T20:20:55.353Z,96732.79
2019-06-20T20:23:27.792Z,96735.03
2019-06-20T20:25:59.364Z,96734.51
2019-06-20T20:28:31.082Z,96738.56
2019-06-20T20:31:05.381Z,96740.58
2019-06-20T20:33:39.237Z,96753.59
2019-06-20T20:36:23.941Z,96752.75
2019-06-20T20:38:42.477Z,96757.32
2019-06-20T20:41:17.504Z,96759.45
2019-06-20T20:43:50.090Z,96763.99
2019-06-20T20:46:21.597Z,96769.66
2019-06-20T20:48:53.466Z,96768.66
2019-06-20T20:51:24.560Z,96756.16
2019-06-20T20:53:58.133Z,96756.16
2019-06-20T20:56:28.979Z,96764.38
2019-06-20T20:59:00.834Z,96765.11
2019-06-20T21:01:35.502Z,96765.11
2019-06-20T21:04:08.009Z,96771.66
2019-06-20T21:06:41.449Z,96779.89
2019-06-20T21:09:35.163Z,96773.28
2019-06-20T21:12:05.768Z,96778.77
2019-06-20T21:14:37.920Z,96781.24
2019-06-20T21:17:31.754Z,96781.30
2019-06-20T21:20:11.304Z,96782.66
2019-06-20T21:22:53.979Z,96774.52
2019-06-20T21:25:44.028Z,96779.20
2019-06-20T21:28:43.903Z,96778.46
2019-06-20T21:31:28.892Z,96777.17
2019-06-20T21:34:23.753Z,96779.88
2019-06-20T21:37:14.052Z,96787.84
2019-06-20T21:40:12.349Z,96786.22
2019-06-20T21:43:17.458Z,96781.45
2019-06-20T21:46:07.712Z,96790.59
2019-06-20T21:48:54.355Z,96797.59
2019-06-20T21:51:44.734Z,96796.84
2019-06-20T21:54:43.120Z,96803.66
2019-06-20T21:57:49.940Z,96803.47
2019-06-20T22:00:54.958Z,96809.23
2019-06-20T22:03:55.693Z,96811.73
2019-06-20T22:06:56.695Z,96810.41
2019-06-20T22:10:05.728Z,96814.22
2019-06-20T22:13:07.711Z,96818.77
2019-06-20T22:15:50.780Z,96820.20
2019-06-20T22:18:45.476Z,96822.09
2019-06-20T22:21:48.313Z,96821.02
2019-06-20T22:24:30.644Z,96821.28
2019-06-20T22:27:29.799Z,96824.22
2019-06-20T22:30:16.426Z,96828.56
2019-06-20T22:33:26.608Z,96819.66
2019-06-20T22:36:11.981Z,96826.43
2019-06-20T22:39:10.199Z,96835.35
2019-06-20T22:42:23.203Z,96833.77
2019-06-20T22:45:30.477Z,96843.17
2019-06-20T22:48:25.701Z,96847.70
2019-06-20T22:51:32.333Z,96839.98
2019-06-20T22:54:35.485Z,96832.94
2019-06-20T22:57:40.497Z,96831.63
2019-06-20T23:00:41.764Z,96831.38
2019-06-20T23:03:41.119Z,96829.31
2019-06-20T23:06:14.114Z,96838.53
2019-06-20T23:08:47.857Z,96833.75
2019-06-20T23:11:17.643Z,96840.22
2019-06-20T23:14:18.931Z,96842.42
2019-06-20T23:17:26.196Z,96850.51
2019-06-20T23:20:23.070Z,96849.98
2019-06-20T23:23:28.596Z,96846.72
2019-06-20T23:26:20.633Z,96844.59
2019-06-20T23:29:20.253Z,96845.67
2019-06-20T23:32:26.385Z,96850.25
2019-06-20T23:35:22.438Z,96846.45
2019-06-20T23:38:39.363Z,96858.05
2019-06-20T23:41:36.783Z,96857.03
2019-06-20T23:44:46.721Z,96852.45
2019-06-20T23:47:44.432Z,96854.86
2019-06-20T23:50:37.614Z,96853.77
2019-06-20T23:53:34.820Z,96855.34
2019-06-20T23:56:28.812Z,96862.05
2019-06-20T23:59:23.690Z,96861.48
